createdAt,value
2022-08-22T00:01:38.830Z,17.85
2022-08-22T00:06:54.773Z,17.83
2022-08-22T00:12:29.607Z,17.89
2022-08-22T00:17:43.551Z,18.29
2022-08-22T00:23:15.799Z,18.22
2022-08-22T00:28:34.805Z,18.05
2022-08-22T00:34:00.522Z,17.95
2022-08-22T00:39:19.058Z,18.27
2022-08-22T00:45:05.734Z,18.34
2022-08-22T00:50:38.651Z,18.27
2022-08-22T00:56:12.875Z,18.38
2022-08-22T01:01:20.047Z,18.44
2022-08-22T01:06:49.971Z,18.30
2022-08-22T01:12:12.010Z,18.38
2022-08-22T01:17:22.936Z,18.28
2022-08-22T01:22:43.739Z,18.23
2022-08-22T01:27:55.581Z,18.30
2022-08-22T01:33:33.918Z,17.76
2022-08-22T01:38:58.852Z,17.80
2022-08-22T01:44:28.058Z,18.06
2022-08-22T01:49:42.482Z,17.88
2022-08-22T01:55:03.307Z,18.13
2022-08-22T02:00:17.294Z,17.66
2022-08-22T02:05:31.804Z,17.76
2022-08-22T02:11:09.310Z,17.77
2022-08-22T02:16:24.107Z,17.06
2022-08-22T02:21:45.032Z,17.25
2022-08-22T02:27:12.428Z,17.44
2022-08-22T02:32:40.537Z,17.75
2022-08-22T02:38:25.140Z,17.64
2022-08-22T02:43:39.601Z,17.76
2022-08-22T02:48:48.604Z,17.76
2022-08-22T02:53:57.193Z,17.43
2022-08-22T02:59:30.231Z,17.56
2022-08-22T03:04:32.466Z,17.53
2022-08-22T03:09:42.611Z,17.59
2022-08-22T03:15:06.982Z,17.48
2022-08-22T03:20:36.070Z,17.13
2022-08-22T03:25:49.922Z,17.21
2022-08-22T03:31:07.992Z,17.29
2022-08-22T03:36:15.801Z,17.53
2022-08-22T03:41:32.993Z,17.41
2022-08-22T03:47:07.166Z,17.43
2022-08-22T03:53:18.507Z,17.01
2022-08-22T03:58:30.438Z,17.15
2022-08-22T04:03:54.204Z,16.66
2022-08-22T04:09:43.066Z,16.35
2022-08-22T04:15:07.578Z,16.56
2022-08-22T04:20:26.686Z,16.42
2022-08-22T04:25:38.351Z,16.49
2022-08-22T04:31:19.058Z,16.71
2022-08-22T04:36:29.306Z,16.58
2022-08-22T04:41:31.406Z,16.45
2022-08-22T04:46:45.794Z,16.52
2022-08-22T04:51:59.372Z,16.48
2022-08-22T04:57:07.125Z,16.37
2022-08-22T05:02:12.186Z,16.30
2022-08-22T05:07:21.426Z,16.12
2022-08-22T05:12:32.890Z,16.25
2022-08-22T05:17:38.886Z,16.23
2022-08-22T05:22:47.061Z,16.40
2022-08-22T05:27:56.390Z,16.22
2022-08-22T05:33:33.872Z,16.55
2022-08-22T05:38:47.474Z,16.65
2022-08-22T05:43:51.405Z,16.75
2022-08-22T05:48:58.962Z,16.43
2022-08-22T05:54:11.942Z,16.29
2022-08-22T05:59:38.473Z,16.52
2022-08-22T06:04:52.529Z,16.63
2022-08-22T06:10:30.106Z,16.52
2022-08-22T06:15:53.433Z,17.06
2022-08-22T06:21:00.386Z,17.25
2022-08-22T06:26:05.564Z,17.44
2022-08-22T06:31:29.171Z,17.60
2022-08-22T06:36:35.298Z,17.53
2022-08-22T06:41:48.129Z,17.73
2022-08-22T06:46:55.601Z,17.82
2022-08-22T06:52:02.478Z,17.78
2022-08-22T06:57:06.833Z,17.95
2022-08-22T07:02:21.852Z,18.03
2022-08-22T07:07:27.044Z,18.05
2022-08-22T07:12:37.925Z,17.55
2022-08-22T07:17:54.482Z,17.96
2022-08-22T07:23:28.794Z,16.40
2022-08-22T07:28:51.316Z,17.44
2022-08-22T07:34:18.274Z,17.98
2022-08-22T07:39:27.391Z,18.30
2022-08-22T07:44:48.473Z,18.50
2022-08-22T07:50:03.843Z,18.57
2022-08-22T07:55:18.878Z,18.58
2022-08-22T08:00:24.074Z,18.27
2022-08-22T08:05:29.587Z,18.18
2022-08-22T08:10:39.682Z,17.58
2022-08-22T08:15:45.849Z,18.12
2022-08-22T08:21:00.486Z,18.20
2022-08-22T08:26:08.606Z,17.44
2022-08-22T08:31:28.996Z,16.60
2022-08-22T08:36:49.062Z,17.52
2022-08-22T08:42:00.917Z,16.59
2022-08-22T08:47:15.334Z,17.74
2022-08-22T08:52:35.818Z,17.50
2022-08-22T08:57:50.086Z,15.93
2022-08-22T09:02:55.420Z,17.93
2022-08-22T09:08:39.922Z,13.79
2022-08-22T09:13:51.018Z,13.29
2022-08-22T09:19:11.598Z,15.78
2022-08-22T09:24:47.260Z,15.08
2022-08-22T09:30:13.255Z,12.96
2022-08-22T09:35:30.562Z,14.50
2022-08-22T09:40:39.311Z,16.00
2022-08-22T09:45:50.708Z,14.36
2022-08-22T09:51:32.718Z,13.47
2022-08-22T09:56:47.286Z,15.78
2022-08-22T10:02:02.462Z,16.04
2022-08-22T10:07:41.885Z,15.45
2022-08-22T10:13:11.909Z,14.68
2022-08-22T10:18:53.951Z,17.32
2022-08-22T10:24:09.414Z,16.54
2022-08-22T10:29:30.118Z,18.50
2022-08-22T10:34:39.446Z,17.68
2022-08-22T10:39:59.323Z,17.01
2022-08-22T10:45:43.649Z,15.88
2022-08-22T10:50:53.156Z,15.84
2022-08-22T10:56:14.310Z,16.77
2022-08-22T11:01:41.022Z,18.66
2022-08-22T11:06:51.716Z,19.10
2022-08-22T11:12:04.928Z,16.38
2022-08-22T11:17:27.957Z,15.74
2022-08-22T11:22:55.638Z,15.90
2022-08-22T11:28:45.549Z,16.65
2022-08-22T11:33:59.262Z,18.82
2022-08-22T11:39:25.609Z,17.61
2022-08-22T11:44:34.342Z,18.52
2022-08-22T11:49:58.139Z,16.71
2022-08-22T11:55:19.256Z,18.10
2022-08-22T12:00:26.736Z,16.62
2022-08-22T12:05:45.945Z,17.55
2022-08-22T12:11:06.080Z,16.92
2022-08-22T12:16:19.965Z,17.59
2022-08-22T12:21:24.669Z,18.21
2022-08-22T12:26:41.894Z,16.75
2022-08-22T12:31:58.998Z,19.38
2022-08-22T12:37:09.977Z,18.71
2022-08-22T12:42:18.053Z,17.38
2022-08-22T12:47:49.536Z,18.29
2022-08-22T12:52:57.614Z,18.67
2022-08-22T12:58:08.259Z,18.43
2022-08-22T13:03:25.417Z,20.01
2022-08-22T13:08:43.694Z,20.35
2022-08-22T13:14:01.202Z,20.33
2022-08-22T13:19:18.008Z,19.06
2022-08-22T13:24:38.639Z,19.44
2022-08-22T13:29:49.585Z,20.81
2022-08-22T13:34:55.835Z,19.61
2022-08-22T13:40:04.837Z,21.70
2022-08-22T13:45:15.569Z,19.64
2022-08-22T13:50:22.544Z,21.19
2022-08-22T13:55:49.053Z,21.98
2022-08-22T14:01:35.320Z,22.49
2022-08-22T14:06:49.903Z,22.16
2022-08-22T14:11:59.741Z,22.12
2022-08-22T14:17:03.443Z,21.45
2022-08-22T14:22:09.918Z,23.73
2022-08-22T14:27:39.658Z,23.91
2022-08-22T14:32:54.458Z,23.19
2022-08-22T14:38:17.479Z,23.12
2022-08-22T14:43:35.602Z,25.00
2022-08-22T14:48:46.858Z,25.49
2022-08-22T14:53:50.296Z,23.66
2022-08-22T14:59:02.256Z,23.11
2022-08-22T15:04:16.509Z,26.36
2022-08-22T15:09:40.485Z,27.49
2022-08-22T15:14:52.368Z,26.64
2022-08-22T15:20:10.906Z,27.80
2022-08-22T15:25:22.809Z,27.66
2022-08-22T15:30:44.363Z,27.77
2022-08-22T15:35:49.056Z,24.78
2022-08-22T15:40:52.487Z,26.40
2022-08-22T15:46:32.872Z,26.31
2022-08-22T15:51:38.080Z,28.96
2022-08-22T15:57:09.985Z,27.47
2022-08-22T16:02:39.027Z,26.84
2022-08-22T16:07:49.653Z,26.58
2022-08-22T16:13:32.209Z,25.76
2022-08-22T16:18:34.292Z,27.52
2022-08-22T16:23:53.814Z,23.65
2022-08-22T16:29:14.998Z,26.11
2022-08-22T16:34:38.281Z,25.61
2022-08-22T16:40:01.903Z,26.02
2022-08-22T16:45:05.116Z,25.93
2022-08-22T16:50:18.458Z,26.31
2022-08-22T16:55:36.983Z,24.92
2022-08-22T17:00:45.685Z,24.39
2022-08-22T17:06:10.726Z,24.86
2022-08-22T17:11:48.443Z,25.53
2022-08-22T17:17:11.753Z,25.29
2022-08-22T17:22:52.080Z,25.69
2022-08-22T17:28:06.562Z,25.73
2022-08-22T17:33:28.564Z,26.78
2022-08-22T17:38:59.426Z,25.23
2022-08-22T17:44:32.463Z,26.99
2022-08-22T17:49:46.238Z,29.19
2022-08-22T17:55:12.549Z,30.10
2022-08-22T18:00:30.784Z,30.10
2022-08-22T18:05:39.905Z,29.82
2022-08-22T18:11:09.071Z,28.95
2022-08-22T18:16:35.371Z,28.76
2022-08-22T18:21:47.328Z,28.30
2022-08-22T18:27:02.886Z,27.81
2022-08-22T18:32:14.830Z,27.32
2022-08-22T18:37:39.051Z,26.28
2022-08-22T18:42:55.225Z,26.15
2022-08-22T18:47:57.654Z,25.26
2022-08-22T18:53:00.456Z,24.76
2022-08-22T18:58:29.590Z,25.03
2022-08-22T19:03:48.206Z,24.38
2022-08-22T19:09:02.192Z,24.47
2022-08-22T19:14:13.341Z,24.02
2022-08-22T19:19:23.362Z,23.46
2022-08-22T19:24:29.482Z,23.18
2022-08-22T19:29:34.383Z,23.06
2022-08-22T19:34:40.753Z,22.54
2022-08-22T19:39:42.849Z,22.46
2022-08-22T19:45:07.054Z,21.99
2022-08-22T19:50:18.015Z,21.22
2022-08-22T19:56:06.013Z,21.47
2022-08-22T20:01:44.024Z,22.24
2022-08-22T20:07:14.556Z,22.20
2022-08-22T20:12:44.358Z,22.52
2022-08-22T20:18:11.655Z,21.63
2022-08-22T20:23:25.230Z,22.31
2022-08-22T20:28:44.604Z,22.02
2022-08-22T20:33:53.826Z,21.24
2022-08-22T20:39:08.521Z,21.46
2022-08-22T20:44:13.802Z,21.53
2022-08-22T20:49:30.117Z,20.71
2022-08-22T20:54:38.043Z,19.74
2022-08-22T20:59:49.333Z,20.06
2022-08-22T21:05:03.377Z,18.80
2022-08-22T21:10:44.425Z,18.84
2022-08-22T21:15:51.439Z,19.50
2022-08-22T21:20:54.270Z,19.82
2022-08-22T21:26:01.527Z,19.48
2022-08-22T21:31:13.582Z,19.52
2022-08-22T21:36:20.382Z,18.97
2022-08-22T21:41:29.459Z,19.27
2022-08-22T21:46:31.616Z,19.03
2022-08-22T21:51:36.748Z,19.21
2022-08-22T21:56:38.951Z,19.05
2022-08-22T22:01:42.731Z,19.57
2022-08-22T22:06:48.045Z,19.12
2022-08-22T22:11:50.545Z,19.42
2022-08-22T22:16:52.749Z,19.52
2022-08-22T22:21:54.847Z,19.11
2022-08-22T22:26:57.367Z,19.38
2022-08-22T22:31:59.614Z,19.01
2022-08-22T22:37:01.782Z,18.51
2022-08-22T22:42:04.809Z,18.94
2022-08-22T22:47:07.208Z,18.85
2022-08-22T22:52:11.748Z,18.80
2022-08-22T22:57:16.199Z,18.52
2022-08-22T23:02:27.603Z,19.07
2022-08-22T23:07:29.723Z,19.03
2022-08-22T23:12:37.516Z,18.00
2022-08-22T23:17:41.125Z,18.39
2022-08-22T23:22:45.418Z,18.60
2022-08-22T23:27:52.136Z,18.67
2022-08-22T23:32:55.795Z,19.03
2022-08-22T23:37:57.917Z,19.08
2022-08-22T23:43:00.174Z,18.76
2022-08-22T23:48:02.424Z,18.29
2022-08-22T23:53:04.533Z,18.60
2022-08-22T23:58:06.650Z,18.51
